createdAt,value
2019-06-08T00:01:20.604Z,95378.95
2019-06-08T00:03:51.764Z,95378.14
2019-06-08T00:06:23.924Z,95376.55
2019-06-08T00:08:55.911Z,95382.16
2019-06-08T00:11:28.067Z,95377.06
2019-06-08T00:14:00.164Z,95373.31
2019-06-08T00:16:32.347Z,95378.12
2019-06-08T00:19:04.466Z,95380.28
2019-06-08T00:21:36.309Z,95378.93
2019-06-08T00:24:08.066Z,95382.67
2019-06-08T00:26:40.057Z,95381.36
2019-06-08T00:29:12.139Z,95374.92
2019-06-08T00:31:43.844Z,95379.70
2019-06-08T00:34:16.553Z,95381.58
2019-06-08T00:36:48.271Z,95377.00
2019-06-08T00:39:20.910Z,95375.97
2019-06-08T00:41:53.363Z,95375.13
2019-06-08T00:44:25.747Z,95374.59
2019-06-08T00:46:57.837Z,95375.12
2019-06-08T00:49:29.843Z,95378.01
2019-06-08T00:52:01.541Z,95370.72
2019-06-08T00:54:34.383Z,95369.14
2019-06-08T00:57:06.554Z,95371.00
2019-06-08T00:59:38.446Z,95365.61
2019-06-08T01:02:10.408Z,95366.44
2019-06-08T01:04:42.218Z,95362.13
2019-06-08T01:07:14.466Z,95357.30
2019-06-08T01:09:46.542Z,95350.34
2019-06-08T01:12:18.711Z,95351.67
2019-06-08T01:14:50.466Z,95359.42
2019-06-08T01:17:23.021Z,95363.95
2019-06-08T01:19:54.987Z,95364.48
2019-06-08T01:22:27.729Z,95370.39
2019-06-08T01:24:59.516Z,95363.50
2019-06-08T01:27:31.565Z,95368.63
2019-06-08T01:30:03.369Z,95367.59
2019-06-08T01:32:35.593Z,95368.68
2019-06-08T01:35:07.675Z,95370.56
2019-06-08T01:37:39.470Z,95374.59
2019-06-08T01:40:11.581Z,95370.58
2019-06-08T01:42:43.111Z,95363.58
2019-06-08T01:45:32.434Z,95362.68
2019-06-08T01:48:18.737Z,95362.86
2019-06-08T01:50:39.264Z,95360.91
2019-06-08T01:53:10.864Z,95361.39
2019-06-08T01:55:42.566Z,95356.30
2019-06-08T01:58:14.273Z,95353.66
2019-06-08T02:00:45.944Z,95358.45
2019-06-08T02:03:17.734Z,95353.64
2019-06-08T02:05:49.768Z,95355.55
2019-06-08T02:08:21.715Z,95355.81
2019-06-08T02:10:53.426Z,95354.23
2019-06-08T02:13:26.897Z,95353.22
2019-06-08T02:15:58.709Z,95355.84
2019-06-08T02:18:38.876Z,95360.44
2019-06-08T02:21:02.823Z,95361.48
2019-06-08T02:23:35.198Z,95361.72
2019-06-08T02:26:07.182Z,95363.56
2019-06-08T02:28:39.905Z,95364.11
2019-06-08T02:31:12.190Z,95370.59
2019-06-08T02:33:44.286Z,95366.89
2019-06-08T02:36:16.252Z,95374.66
2019-06-08T02:38:48.064Z,95371.50
2019-06-08T02:41:20.135Z,95368.03
2019-06-08T02:43:52.443Z,95366.69
2019-06-08T02:46:24.059Z,95368.83
2019-06-08T02:49:04.202Z,95372.88
2019-06-08T02:51:31.152Z,95369.67
2019-06-08T02:54:05.018Z,95375.29
2019-06-08T02:56:36.751Z,95374.26
2019-06-08T02:59:09.539Z,95368.63
2019-06-08T03:01:42.472Z,95368.50
2019-06-08T03:04:16.873Z,95370.00
2019-06-08T03:06:50.627Z,95380.77
2019-06-08T03:09:24.826Z,95379.61
2019-06-08T03:11:57.513Z,95381.18
2019-06-08T03:14:30.987Z,95381.98
2019-06-08T03:17:02.860Z,95376.88
2019-06-08T03:19:35.642Z,95372.07
2019-06-08T03:22:10.787Z,95377.41
2019-06-08T03:24:41.616Z,95379.82
2019-06-08T03:27:13.649Z,95383.69
2019-06-08T03:29:45.604Z,95390.74
2019-06-08T03:32:17.376Z,95392.17
2019-06-08T03:34:55.726Z,95388.64
2019-06-08T03:37:22.650Z,95392.14
2019-06-08T03:39:54.310Z,95394.84
2019-06-08T03:42:25.752Z,95397.85
2019-06-08T03:44:57.504Z,95395.51
2019-06-08T03:47:29.532Z,95400.58
2019-06-08T03:50:04.782Z,95399.77
2019-06-08T03:52:37.784Z,95403.78
2019-06-08T03:55:10.416Z,95397.65
2019-06-08T03:57:42.218Z,95398.50
2019-06-08T04:00:14.844Z,95399.03
2019-06-08T04:02:46.877Z,95395.25
2019-06-08T04:05:18.533Z,95401.89
2019-06-08T04:07:50.579Z,95396.25
2019-06-08T04:10:22.696Z,95395.23
2019-06-08T04:12:54.368Z,95390.22
2019-06-08T04:15:26.253Z,95393.52
2019-06-08T04:17:57.946Z,95396.79
2019-06-08T04:20:29.740Z,95393.62
2019-06-08T04:23:01.707Z,95391.23
2019-06-08T04:25:33.466Z,95400.37
2019-06-08T04:28:05.243Z,95396.90
2019-06-08T04:30:38.658Z,95399.58
2019-06-08T04:33:10.798Z,95403.06
2019-06-08T04:35:44.451Z,95407.34
2019-06-08T04:38:16.016Z,95408.33
2019-06-08T04:40:48.480Z,95406.16
2019-06-08T04:43:20.933Z,95403.99
2019-06-08T04:45:52.458Z,95402.61
2019-06-08T04:48:24.389Z,95401.75
2019-06-08T04:50:56.229Z,95411.36
2019-06-08T04:53:27.947Z,95409.41
2019-06-08T04:55:59.473Z,95409.88
2019-06-08T04:58:32.350Z,95404.71
2019-06-08T05:01:05.242Z,95405.39
2019-06-08T05:03:36.948Z,95404.00
2019-06-08T05:06:08.385Z,95396.65
2019-06-08T05:08:40.948Z,95397.34
2019-06-08T05:11:12.896Z,95392.48
2019-06-08T05:13:45.375Z,95399.86
2019-06-08T05:16:16.872Z,95397.59
2019-06-08T05:18:49.685Z,95403.55
2019-06-08T05:21:20.536Z,95405.47
2019-06-08T05:23:58.607Z,95408.02
2019-06-08T05:26:26.097Z,95408.23
2019-06-08T05:28:57.714Z,95410.16
2019-06-08T05:31:29.444Z,95412.29
2019-06-08T05:34:01.044Z,95409.61
2019-06-08T05:36:32.531Z,95416.14
2019-06-08T05:39:04.857Z,95422.02
2019-06-08T05:41:36.556Z,95420.61
2019-06-08T05:44:08.302Z,95420.53
2019-06-08T05:46:40.087Z,95417.66
2019-06-08T05:49:11.915Z,95421.52
2019-06-08T05:51:43.812Z,95432.42
2019-06-08T05:54:15.750Z,95426.03
2019-06-08T05:56:47.996Z,95436.02
2019-06-08T05:59:19.786Z,95432.96
2019-06-08T06:01:51.795Z,95433.45
2019-06-08T06:04:23.650Z,95434.09
2019-06-08T06:06:55.506Z,95430.62
2019-06-08T06:09:27.357Z,95437.05
2019-06-08T06:11:59.116Z,95432.39
2019-06-08T06:14:30.908Z,95434.78
2019-06-08T06:17:02.718Z,95430.63
2019-06-08T06:19:34.512Z,95435.79
2019-06-08T06:22:06.468Z,95436.09
2019-06-08T06:24:38.278Z,95431.03
2019-06-08T06:27:09.827Z,95437.30
2019-06-08T06:29:41.662Z,95433.63
2019-06-08T06:32:13.743Z,95434.67
2019-06-08T06:34:45.824Z,95430.59
2019-06-08T06:37:17.468Z,95430.19
2019-06-08T06:39:50.071Z,95430.44
2019-06-08T06:42:24.719Z,95435.20
2019-06-08T06:44:55.944Z,95430.09
2019-06-08T06:47:28.059Z,95432.88
2019-06-08T06:49:59.918Z,95430.72
2019-06-08T06:52:31.959Z,95430.25
2019-06-08T06:55:03.428Z,95426.86
2019-06-08T06:57:36.719Z,95430.80
2019-06-08T07:00:10.457Z,95426.81
2019-06-08T07:02:43.539Z,95425.56
2019-06-08T07:05:15.861Z,95430.77
2019-06-08T07:07:48.165Z,95426.62
2019-06-08T07:10:19.938Z,95431.09
2019-06-08T07:12:52.810Z,95437.96
2019-06-08T07:15:30.977Z,95426.45
2019-06-08T07:18:02.714Z,95424.33
2019-06-08T07:20:34.569Z,95426.97
2019-06-08T07:23:06.820Z,95421.43
2019-06-08T07:25:38.495Z,95427.09
2019-06-08T07:28:10.125Z,95414.52
2019-06-08T07:30:41.765Z,95423.50
2019-06-08T07:33:13.704Z,95415.26
2019-06-08T07:35:45.258Z,95415.41
2019-06-08T07:38:17.080Z,95410.50
2019-06-08T07:40:49.954Z,95410.50
2019-06-08T07:43:21.575Z,95411.94
2019-06-08T07:45:54.180Z,95411.94
2019-06-08T07:48:24.949Z,95414.20
2019-06-08T07:50:56.620Z,95409.51
2019-06-08T07:53:28.377Z,95402.63
2019-06-08T07:55:59.883Z,95408.06
2019-06-08T07:58:31.728Z,95408.06
2019-06-08T08:01:07.972Z,95406.36
2019-06-08T08:03:36.805Z,95410.83
2019-06-08T08:06:08.662Z,95410.27
2019-06-08T08:08:40.750Z,95401.59
2019-06-08T08:11:12.321Z,95401.69
2019-06-08T08:13:44.306Z,95407.19
2019-06-08T08:16:15.923Z,95402.59
2019-06-08T08:18:48.962Z,95394.52
2019-06-08T08:21:25.609Z,95397.77
2019-06-08T08:23:55.933Z,95401.34
2019-06-08T08:26:30.460Z,95394.91
2019-06-08T08:29:03.187Z,95387.77
2019-06-08T08:31:37.287Z,95394.34
2019-06-08T08:34:09.104Z,95389.20
2019-06-08T08:36:39.837Z,95389.78
2019-06-08T08:39:11.432Z,95387.59
2019-06-08T08:41:44.406Z,95390.88
2019-06-08T08:44:17.751Z,95393.64
2019-06-08T08:46:51.412Z,95389.18
2019-06-08T08:49:23.238Z,95380.73
2019-06-08T08:51:56.111Z,95382.40
2019-06-08T08:54:29.778Z,95389.45
2019-06-08T08:57:05.104Z,95389.11
2019-06-08T08:59:37.990Z,95383.38
2019-06-08T09:02:11.449Z,95381.20
2019-06-08T09:04:42.755Z,95371.83
2019-06-08T09:07:14.845Z,95370.45
2019-06-08T09:09:48.245Z,95373.23
2019-06-08T09:12:19.723Z,95379.00
2019-06-08T09:14:51.879Z,95379.73
2019-06-08T09:17:24.828Z,95372.97
2019-06-08T09:19:59.754Z,95378.30
2019-06-08T09:22:31.478Z,95374.69
2019-06-08T09:25:04.512Z,95365.42
2019-06-08T09:27:38.269Z,95373.39
2019-06-08T09:30:10.492Z,95374.53
2019-06-08T09:32:42.563Z,95383.75
2019-06-08T09:35:14.574Z,95376.80
2019-06-08T09:37:48.409Z,95378.37
2019-06-08T09:40:20.048Z,95386.89
2019-06-08T09:42:57.249Z,95376.52
2019-06-08T09:45:24.959Z,95372.71
2019-06-08T09:47:59.648Z,95385.68
2019-06-08T09:50:29.703Z,95383.42
2019-06-08T09:53:14.901Z,95382.50
2019-06-08T09:55:34.712Z,95385.67
2019-06-08T09:58:09.472Z,95383.13
2019-06-08T10:00:40.041Z,95376.84
2019-06-08T10:03:12.036Z,95383.04
2019-06-08T10:05:43.815Z,95375.94
2019-06-08T10:08:20.229Z,95379.73
2019-06-08T10:10:49.012Z,95377.30
2019-06-08T10:13:21.753Z,95375.77
2019-06-08T10:15:54.921Z,95377.64
2019-06-08T10:18:28.485Z,95373.34
2019-06-08T10:21:02.845Z,95368.92
2019-06-08T10:23:34.887Z,95371.62
2019-06-08T10:26:06.905Z,95376.41
2019-06-08T10:28:39.151Z,95374.48
2019-06-08T10:31:10.826Z,95373.77
2019-06-08T10:33:42.317Z,95369.22
2019-06-08T10:36:14.241Z,95367.59
2019-06-08T10:38:48.010Z,95361.55
2019-06-08T10:41:21.808Z,95363.09
2019-06-08T10:43:52.988Z,95366.62
2019-06-08T10:46:24.637Z,95360.70
2019-06-08T10:48:57.393Z,95363.66
2019-06-08T10:51:29.524Z,95361.88
2019-06-08T10:54:02.089Z,95353.48
2019-06-08T10:56:34.017Z,95352.39
2019-06-08T10:59:09.972Z,95353.58
2019-06-08T11:01:39.559Z,95349.34
2019-06-08T11:04:11.295Z,95344.44
2019-06-08T11:06:44.049Z,95342.68
2019-06-08T11:09:18.719Z,95346.71
2019-06-08T11:11:49.446Z,95334.24
2019-06-08T11:14:22.756Z,95326.31
2019-06-08T11:16:54.832Z,95329.25
2019-06-08T11:19:26.795Z,95322.83
2019-06-08T11:22:02.695Z,95322.33
2019-06-08T11:24:32.211Z,95323.50
2019-06-08T11:27:05.579Z,95323.81
2019-06-08T11:29:38.323Z,95322.27
2019-06-08T11:32:12.324Z,95318.76
2019-06-08T11:34:43.596Z,95317.92
2019-06-08T11:37:20.645Z,95315.95
2019-06-08T11:39:49.168Z,95315.55
2019-06-08T11:42:20.020Z,95314.60
2019-06-08T11:44:51.607Z,95312.39
2019-06-08T11:47:23.658Z,95318.03
2019-06-08T11:49:57.543Z,95316.41
2019-06-08T11:52:28.891Z,95315.83
2019-06-08T11:55:02.596Z,95307.02
2019-06-08T11:57:37.339Z,95315.20
2019-06-08T12:00:23.486Z,95307.04
2019-06-08T12:02:43.358Z,95309.09
2019-06-08T12:05:15.151Z,95300.87
2019-06-08T12:07:48.050Z,95300.50
2019-06-08T12:10:19.859Z,95303.22
2019-06-08T12:12:51.576Z,95299.33
2019-06-08T12:15:23.449Z,95301.62
2019-06-08T12:17:55.165Z,95298.86
2019-06-08T12:20:28.009Z,95297.12
2019-06-08T12:22:59.740Z,95305.09
2019-06-08T12:25:31.442Z,95291.23
2019-06-08T12:28:02.928Z,95295.50
2019-06-08T12:30:34.981Z,95302.66
2019-06-08T12:33:09.377Z,95298.58
2019-06-08T12:35:40.261Z,95297.44
2019-06-08T12:38:13.017Z,95299.58
2019-06-08T12:40:45.068Z,95297.20
2019-06-08T12:43:19.846Z,95304.27
2019-06-08T12:45:50.779Z,95294.64
2019-06-08T12:48:25.446Z,95299.26
2019-06-08T12:50:55.818Z,95293.80
2019-06-08T12:53:28.284Z,95293.00
2019-06-08T12:55:59.921Z,95293.72
2019-06-08T12:58:31.780Z,95279.44
2019-06-08T13:01:03.986Z,95278.63
2019-06-08T13:03:37.712Z,95278.25
2019-06-08T13:06:11.226Z,95286.11
2019-06-08T13:08:42.558Z,95274.33
2019-06-08T13:11:14.359Z,95273.95
2019-06-08T13:13:46.113Z,95285.31
2019-06-08T13:16:23.754Z,95288.08
2019-06-08T13:18:51.338Z,95281.06
2019-06-08T13:21:34.176Z,95288.28
2019-06-08T13:23:58.114Z,95279.44
2019-06-08T13:26:31.115Z,95279.84
2019-06-08T13:29:03.195Z,95274.75
2019-06-08T13:31:34.920Z,95281.20
2019-06-08T13:34:08.220Z,95276.30
2019-06-08T13:36:42.246Z,95282.95
2019-06-08T14:56:05.758Z,95243.58
2019-06-08T14:58:34.663Z,95255.19
2019-06-08T15:01:07.932Z,95249.78
2019-06-08T15:03:40.759Z,95253.77
2019-06-08T15:06:12.913Z,95253.91
2019-06-08T15:08:45.221Z,95253.55
2019-06-08T15:11:17.892Z,95255.66
2019-06-08T15:13:50.944Z,95257.52
2019-06-08T15:16:23.657Z,95269.42
2019-06-08T15:18:54.754Z,95257.07
2019-06-08T15:21:30.127Z,95253.05
2019-06-08T15:24:01.140Z,95254.67
2019-06-08T15:26:42.635Z,95255.69
2019-06-08T15:29:10.975Z,95251.48
2019-06-08T15:31:43.246Z,95252.44
2019-06-08T15:34:17.797Z,95250.02
2019-06-08T15:36:50.000Z,95255.63
2019-06-08T15:39:23.474Z,95252.95
2019-06-08T15:41:59.838Z,95254.77
2019-06-08T15:44:30.729Z,95249.73
2019-06-08T15:47:04.132Z,95253.80
2019-06-08T15:49:38.858Z,95248.85
2019-06-08T15:52:10.724Z,95252.43
2019-06-08T15:54:44.325Z,95249.27
2019-06-08T15:57:17.838Z,95256.49
2019-06-08T15:59:49.399Z,95248.42
2019-06-08T16:02:21.447Z,95248.42
2019-06-08T16:04:53.908Z,95253.19
2019-06-08T16:07:28.596Z,95258.33
2019-06-08T16:10:00.748Z,95250.00
2019-06-08T16:12:33.403Z,95256.03
2019-06-08T16:15:06.530Z,95255.61
2019-06-08T16:17:39.098Z,95258.56
2019-06-08T16:20:11.667Z,95257.77
2019-06-08T16:22:43.739Z,95249.61
2019-06-08T16:25:16.272Z,95248.36
2019-06-08T16:27:48.579Z,95246.58
2019-06-08T16:30:21.080Z,95244.42
2019-06-08T16:32:53.522Z,95250.42
2019-06-08T16:35:27.921Z,95256.47
2019-06-08T16:37:59.522Z,95253.63
2019-06-08T16:40:32.103Z,95250.69
2019-06-08T16:43:05.716Z,95254.88
2019-06-08T16:45:39.437Z,95257.73
2019-06-08T16:48:11.384Z,95253.42
2019-06-08T16:50:43.986Z,95252.05
2019-06-08T16:53:16.580Z,95261.23
2019-06-08T17:15:16.816Z,95271.23
2019-06-08T17:17:48.391Z,95271.52
2019-06-08T17:20:20.168Z,95272.87
2019-06-08T17:22:52.210Z,95275.53
2019-06-08T17:25:23.681Z,95274.83
2019-06-08T17:27:55.372Z,95278.03
2019-06-08T17:30:27.190Z,95281.41
2019-06-08T17:32:59.103Z,95282.39
2019-06-08T17:35:31.379Z,95269.68
2019-06-08T17:38:03.543Z,95269.45
2019-06-08T17:40:35.867Z,95275.24
2019-06-08T17:43:07.714Z,95270.68
2019-06-08T17:45:40.719Z,95273.61
2019-06-08T17:48:13.009Z,95269.63
2019-06-08T17:50:44.854Z,95270.98
2019-06-08T17:53:16.710Z,95268.07
2019-06-08T17:55:48.434Z,95270.41
2019-06-08T17:58:21.692Z,95266.16
2019-06-08T18:00:53.299Z,95267.61
2019-06-08T18:03:25.218Z,95274.02
2019-06-08T18:05:58.094Z,95272.36
2019-06-08T18:08:28.587Z,95270.70
2019-06-08T18:11:00.091Z,95267.87
2019-06-08T18:13:31.993Z,95268.13
2019-06-08T18:16:03.488Z,95278.45
2019-06-08T18:18:39.156Z,95277.81
2019-06-08T18:21:09.830Z,95275.38
2019-06-08T18:23:42.425Z,95272.31
2019-06-08T18:26:17.255Z,95270.23
2019-06-08T18:28:48.812Z,95275.23
2019-06-08T18:31:20.413Z,95288.47
2019-06-08T18:33:52.047Z,95288.47
2019-06-08T18:36:23.797Z,95294.48
2019-06-08T18:38:56.060Z,95298.64
2019-06-08T18:41:28.490Z,95304.78
2019-06-08T18:44:00.262Z,95309.94
2019-06-08T18:46:32.666Z,95311.05
2019-06-08T18:49:04.563Z,95317.71
2019-06-08T18:51:38.184Z,95325.47
2019-06-08T18:54:14.666Z,95339.73
2019-06-08T18:56:45.080Z,95350.89
2019-06-08T18:59:18.347Z,95359.28
2019-06-08T19:01:50.118Z,95363.34
2019-06-08T19:04:22.032Z,95364.39
2019-06-08T19:06:54.561Z,95372.04
2019-06-08T19:09:26.791Z,95380.72
2019-06-08T19:11:58.519Z,95380.86
2019-06-08T19:14:30.325Z,95383.14
2019-06-08T19:17:01.914Z,95384.42
2019-06-08T19:19:33.499Z,95393.76
2019-06-08T19:22:05.334Z,95392.22
2019-06-08T19:24:40.803Z,95402.46
2019-06-08T19:27:11.769Z,95401.17
2019-06-08T19:29:44.193Z,95405.06
2019-06-08T19:32:17.623Z,95412.59
2019-06-08T19:34:53.969Z,95412.59
2019-06-08T19:37:23.161Z,95413.77
2019-06-08T19:39:57.565Z,95413.70
2019-06-08T19:42:40.008Z,95409.52
2019-06-08T19:45:05.487Z,95411.22
2019-06-08T19:47:36.538Z,95420.37
2019-06-08T19:50:08.656Z,95415.85
2019-06-08T19:52:43.724Z,95415.39
2019-06-08T19:55:13.774Z,95419.63
2019-06-08T19:57:46.373Z,95423.53
2019-06-08T20:00:18.017Z,95418.78
2019-06-08T20:02:53.273Z,95419.58
2019-06-08T20:05:23.718Z,95422.23
2019-06-08T20:07:57.523Z,95421.60
2019-06-08T20:10:28.669Z,95419.87
2019-06-08T20:13:00.782Z,95424.38
2019-06-08T20:15:33.750Z,95429.30
2019-06-08T20:18:05.774Z,95420.81
2019-06-08T20:20:38.206Z,95421.19
2019-06-08T20:23:10.176Z,95416.42
2019-06-08T20:25:43.122Z,95419.67
2019-06-08T20:28:13.889Z,95421.84
2019-06-08T20:30:46.690Z,95420.50
2019-06-08T20:33:18.664Z,95416.82
2019-06-08T20:35:51.879Z,95425.36
2019-06-08T20:38:35.257Z,95426.33
2019-06-08T20:40:58.063Z,95427.87
2019-06-08T20:43:29.969Z,95423.45
2019-06-08T20:46:02.156Z,95415.23
2019-06-08T20:48:33.996Z,95424.43
2019-06-08T20:51:07.814Z,95433.44
2019-06-08T20:53:39.282Z,95432.89
2019-06-08T20:56:10.960Z,95436.98
2019-06-08T20:58:43.191Z,95443.53
2019-06-08T21:01:14.888Z,95443.02
2019-06-08T21:03:48.548Z,95447.33
2019-06-08T21:06:20.215Z,95457.77
2019-06-08T21:08:53.228Z,95457.98
2019-06-08T21:11:27.153Z,95459.13
2019-06-08T21:13:58.726Z,95456.69
2019-06-08T21:16:30.558Z,95445.70
2019-06-08T21:19:02.336Z,95451.48
2019-06-08T21:21:34.376Z,95453.06
2019-06-08T21:24:08.997Z,95448.66
2019-06-08T21:26:40.576Z,95449.17
2019-06-08T21:29:12.378Z,95448.23
2019-06-08T21:31:44.152Z,95453.73
2019-06-08T21:34:18.116Z,95455.94
2019-06-08T21:36:49.822Z,95451.23
2019-06-08T21:39:22.282Z,95445.13
2019-06-08T21:41:58.532Z,95443.35
2019-06-08T21:44:28.124Z,95442.55
2019-06-08T21:47:01.531Z,95441.77
2019-06-08T21:49:33.598Z,95445.19
2019-06-08T21:52:07.323Z,95448.00
2019-06-08T21:54:38.850Z,95443.91
2019-06-08T21:57:10.552Z,95448.26
2019-06-08T21:59:42.473Z,95447.28
2019-06-08T22:02:14.181Z,95444.95
2019-06-08T22:04:47.780Z,95442.83
2019-06-08T22:07:19.398Z,95442.70
2019-06-08T22:09:52.017Z,95444.46
2019-06-08T22:12:24.809Z,95441.47
2019-06-08T22:14:59.002Z,95437.45
2019-06-08T22:17:30.059Z,95432.49
2019-06-08T22:20:01.599Z,95424.52
2019-06-08T22:22:33.347Z,95425.87
2019-06-08T22:25:04.946Z,95430.55
2019-06-08T22:27:38.149Z,95419.95
2019-06-08T22:30:18.451Z,95419.00
2019-06-08T22:32:44.304Z,95419.13
2019-06-08T22:35:16.462Z,95409.00
2019-06-08T22:37:48.164Z,95413.58
2019-06-08T22:40:19.787Z,95419.21
2019-06-08T22:42:51.121Z,95416.45
2019-06-08T22:45:22.901Z,95419.36
2019-06-08T22:47:54.537Z,95421.06
2019-06-08T22:50:27.544Z,95420.97
2019-06-08T22:52:59.785Z,95424.80
2019-06-08T22:55:31.861Z,95421.98
2019-06-08T22:58:04.672Z,95422.05
2019-06-08T23:00:51.368Z,95418.34
2019-06-08T23:03:10.312Z,95429.30
2019-06-08T23:05:41.974Z,95426.88
2019-06-08T23:08:13.658Z,95421.49
2019-06-08T23:10:45.481Z,95421.45
2019-06-08T23:13:17.923Z,95428.69
2019-06-08T23:15:49.822Z,95428.41
2019-06-08T23:18:21.374Z,95437.50
2019-06-08T23:20:58.253Z,95429.97
2019-06-08T23:23:30.235Z,95435.55
2019-06-08T23:26:03.715Z,95434.20
2019-06-08T23:28:37.766Z,95435.33
2019-06-08T23:31:21.032Z,95430.42
2019-06-08T23:33:44.511Z,95429.91
2019-06-08T23:36:46.704Z,95429.31
2019-06-08T23:38:49.954Z,95436.61
2019-06-08T23:41:21.925Z,95424.40
2019-06-08T23:43:53.618Z,95421.84
2019-06-08T23:46:27.365Z,95412.09
2019-06-08T23:49:01.871Z,95415.87
2019-06-08T23:51:32.981Z,95418.50
2019-06-08T23:54:06.428Z,95423.32
2019-06-08T23:56:38.345Z,95417.75
2019-06-08T23:59:10.371Z,95410.75
